< Typhoon 199916 1999 Season Typhoon 199918 >
Typhoon 199917 (ANN)
General InformationTrack Information on Google MapsDetailed Wind InformationList of All Images || Disaster Info.ResourceGoogle EarthGE AnimationAtom FeedGeoJSON
Detalied Best Track (Time Zone = UTC)
Year Month Day Hour Lat. Long. Pressure (hPa) Wind (kt) Class Image Chart
1999 9 14 12 25.3 128.4 1004 0 2 Image Chart
1999 9 14 18 26.4 129.5 1004 0 2 Image Chart
1999 9 15 00 26.5 129.2 1004 0 2 Image Chart
1999 9 15 06 26.6 129.0 1002 0 2 Image Chart
1999 9 15 12 27.3 129.0 1002 0 2 Image Chart
1999 9 15 18 28.3 129.3 998 0 2 Image Chart
1999 9 16 00 29.5 128.1 994 35 3 Image Chart
1999 9 16 03 29.7 127.7 990 40 3 Image Chart
1999 9 16 06 29.7 127.5 985 50 4 Image Chart
1999 9 16 09 29.8 127.4 985 50 4 Image Chart
1999 9 16 12 29.9 127.3 985 50 4 Image Chart
1999 9 16 18 29.9 127.2 985 50 4 Image Chart
1999 9 17 00 30.0 126.6 985 50 4 Image Chart
1999 9 17 06 29.9 126.3 985 50 4 Image Chart
1999 9 17 12 29.8 125.9 985 50 4 Image Chart
1999 9 17 18 29.8 126.1 990 45 3 Image Chart
1999 9 18 00 30.1 124.7 990 45 3 Image Chart
1999 9 18 06 30.4 123.9 990 45 3 Image Chart
1999 9 18 12 31.1 123.5 992 40 3 Image Chart
1999 9 18 18 31.8 122.7 992 40 3 Image Chart
1999 9 19 00 32.5 122.0 996 35 3 Image Chart
1999 9 19 06 33.5 122.3 996 35 3 Image Chart
1999 9 19 12 34.5 122.9 998 35 3 Image Chart
1999 9 19 18 34.8 124.5 1000 0 6 Image Chart
1999 9 20 00 34.5 124.6 1002 0 6 Image Chart
1999 9 20 06 34.3 124.8 1002 0 6 Image Chart
1999 9 20 12 33.9 125.4 1006 0 6 Image Chart
Japan Meteorological Agency Best Track Data | Correction Date : 2005-03-01
< Typhoon 199916 1999 Season Typhoon 199918 >

Help